sensor_id;sensor_type;location;lat;lon;timestamp;P1;durP1;ratioP1;P2;durP2;ratioP2
79464;SDS011;68932;47.410;8.232;2023-04-29T00:00:40;5.30;;;4.50;;
79464;SDS011;68932;47.410;8.232;2023-04-29T00:03:07;5.30;;;4.60;;
79464;SDS011;68932;47.410;8.232;2023-04-29T00:05:34;7.10;;;4.70;;
79464;SDS011;68932;47.410;8.232;2023-04-29T00:08:01;6.00;;;4.20;;
79464;SDS011;68932;47.410;8.232;2023-04-29T00:10:28;7.00;;;4.40;;
79464;SDS011;68932;47.410;8.232;2023-04-29T00:12:55;6.20;;;4.70;;
79464;SDS011;68932;47.410;8.232;2023-04-29T00:15:22;5.50;;;4.00;;
79464;SDS011;68932;47.410;8.232;2023-04-29T00:17:49;6.30;;;5.20;;
79464;SDS011;68932;47.410;8.232;2023-04-29T00:20:16;6.80;;;5.10;;
79464;SDS011;68932;47.410;8.232;2023-04-29T00:22:43;5.40;;;4.60;;
79464;SDS011;68932;47.410;8.232;2023-04-29T00:25:10;4.90;;;4.30;;
79464;SDS011;68932;47.410;8.232;2023-04-29T00:27:37;6.60;;;4.70;;
79464;SDS011;68932;47.410;8.232;2023-04-29T00:30:06;7.90;;;5.10;;
79464;SDS011;68932;47.410;8.232;2023-04-29T00:32:34;5.90;;;4.60;;
79464;SDS011;68932;47.410;8.232;2023-04-29T00:35:01;9.00;;;5.80;;
79464;SDS011;68932;47.410;8.232;2023-04-29T00:37:29;6.60;;;4.90;;
79464;SDS011;68932;47.410;8.232;2023-04-29T00:39:56;4.00;;;3.40;;
79464;SDS011;68932;47.410;8.232;2023-04-29T00:42:22;4.70;;;3.40;;
79464;SDS011;68932;47.410;8.232;2023-04-29T00:44:51;4.20;;;3.80;;
79464;SDS011;68932;47.410;8.232;2023-04-29T00:47:18;4.00;;;2.80;;
79464;SDS011;68932;47.410;8.232;2023-04-29T00:49:45;3.70;;;2.90;;
79464;SDS011;68932;47.410;8.232;2023-04-29T00:52:12;3.80;;;3.10;;
79464;SDS011;68932;47.410;8.232;2023-04-29T00:54:39;3.60;;;3.30;;
79464;SDS011;68932;47.410;8.232;2023-04-29T00:57:06;4.70;;;2.90;;
79464;SDS011;68932;47.410;8.232;2023-04-29T00:59:34;4.00;;;3.20;;
79464;SDS011;68932;47.410;8.232;2023-04-29T01:02:02;3.20;;;2.90;;
79464;SDS011;68932;47.410;8.232;2023-04-29T01:04:29;3.40;;;2.50;;
79464;SDS011;68932;47.410;8.232;2023-04-29T01:07:00;4.10;;;2.80;;
79464;SDS011;68932;47.410;8.232;2023-04-29T01:09:38;3.90;;;3.20;;
79464;SDS011;68932;47.410;8.232;2023-04-29T01:12:20;3.50;;;3.10;;
79464;SDS011;68932;47.410;8.232;2023-04-29T01:15:03;4.70;;;3.40;;
79464;SDS011;68932;47.410;8.232;2023-04-29T01:17:36;4.20;;;2.70;;
79464;SDS011;68932;47.410;8.232;2023-04-29T01:20:08;4.90;;;2.90;;
79464;SDS011;68932;47.410;8.232;2023-04-29T01:22:36;3.40;;;3.00;;
79464;SDS011;68932;47.410;8.232;2023-04-29T01:25:04;3.90;;;3.40;;
79464;SDS011;68932;47.410;8.232;2023-04-29T01:27:32;5.10;;;2.90;;
79464;SDS011;68932;47.410;8.232;2023-04-29T01:30:06;4.60;;;2.80;;
79464;SDS011;68932;47.410;8.232;2023-04-29T01:32:45;3.60;;;2.90;;
79464;SDS011;68932;47.410;8.232;2023-04-29T01:35:27;3.40;;;2.60;;
79464;SDS011;68932;47.410;8.232;2023-04-29T01:38:07;3.00;;;2.40;;
79464;SDS011;68932;47.410;8.232;2023-04-29T01:40:44;2.90;;;2.60;;
79464;SDS011;68932;47.410;8.232;2023-04-29T01:43:16;2.90;;;2.20;;
79464;SDS011;68932;47.410;8.232;2023-04-29T01:45:44;3.20;;;2.60;;
79464;SDS011;68932;47.410;8.232;2023-04-29T01:48:11;2.80;;;2.50;;
79464;SDS011;68932;47.410;8.232;2023-04-29T01:50:39;4.60;;;3.10;;
79464;SDS011;68932;47.410;8.232;2023-04-29T01:53:05;3.60;;;2.50;;
79464;SDS011;68932;47.410;8.232;2023-04-29T01:55:32;4.10;;;2.60;;
79464;SDS011;68932;47.410;8.232;2023-04-29T01:57:59;2.90;;;2.60;;
79464;SDS011;68932;47.410;8.232;2023-04-29T02:00:26;4.10;;;2.80;;
79464;SDS011;68932;47.410;8.232;2023-04-29T02:02:53;3.00;;;2.60;;
79464;SDS011;68932;47.410;8.232;2023-04-29T02:05:20;3.80;;;2.60;;
79464;SDS011;68932;47.410;8.232;2023-04-29T02:07:47;4.00;;;2.90;;
79464;SDS011;68932;47.410;8.232;2023-04-29T02:10:14;3.90;;;2.60;;
79464;SDS011;68932;47.410;8.232;2023-04-29T02:12:41;3.50;;;2.70;;
79464;SDS011;68932;47.410;8.232;2023-04-29T02:15:09;3.20;;;2.90;;
79464;SDS011;68932;47.410;8.232;2023-04-29T02:17:36;3.20;;;2.70;;
79464;SDS011;68932;47.410;8.232;2023-04-29T02:20:04;4.20;;;2.60;;
79464;SDS011;68932;47.410;8.232;2023-04-29T02:22:33;2.40;;;2.20;;
79464;SDS011;68932;47.410;8.232;2023-04-29T02:24:59;3.70;;;2.50;;
79464;SDS011;68932;47.410;8.232;2023-04-29T02:27:26;4.40;;;2.50;;
79464;SDS011;68932;47.410;8.232;2023-04-29T02:29:53;3.50;;;2.40;;
79464;SDS011;68932;47.410;8.232;2023-04-29T02:32:20;3.30;;;2.90;;
79464;SDS011;68932;47.410;8.232;2023-04-29T02:34:47;4.50;;;3.20;;
79464;SDS011;68932;47.410;8.232;2023-04-29T02:37:14;5.00;;;3.60;;
79464;SDS011;68932;47.410;8.232;2023-04-29T02:39:41;3.50;;;3.20;;
79464;SDS011;68932;47.410;8.232;2023-04-29T02:42:08;6.10;;;3.60;;
79464;SDS011;68932;47.410;8.232;2023-04-29T02:44:35;4.30;;;3.00;;
79464;SDS011;68932;47.410;8.232;2023-04-29T02:47:01;3.40;;;2.60;;
79464;SDS011;68932;47.410;8.232;2023-04-29T02:49:28;5.00;;;2.80;;
79464;SDS011;68932;47.410;8.232;2023-04-29T02:51:55;4.90;;;3.10;;
79464;SDS011;68932;47.410;8.232;2023-04-29T02:54:22;3.10;;;2.80;;
79464;SDS011;68932;47.410;8.232;2023-04-29T02:56:49;3.00;;;2.70;;
79464;SDS011;68932;47.410;8.232;2023-04-29T02:59:16;3.30;;;2.90;;
79464;SDS011;68932;47.410;8.232;2023-04-29T03:01:43;3.00;;;2.50;;
79464;SDS011;68932;47.410;8.232;2023-04-29T03:04:10;4.10;;;2.70;;
79464;SDS011;68932;47.410;8.232;2023-04-29T03:06:37;3.20;;;2.70;;
79464;SDS011;68932;47.410;8.232;2023-04-29T03:09:04;2.90;;;2.30;;
79464;SDS011;68932;47.410;8.232;2023-04-29T03:11:31;2.60;;;2.20;;
79464;SDS011;68932;47.410;8.232;2023-04-29T03:13:57;3.20;;;1.80;;
79464;SDS011;68932;47.410;8.232;2023-04-29T03:16:24;2.50;;;2.20;;
79464;SDS011;68932;47.410;8.232;2023-04-29T03:18:51;3.50;;;2.20;;
79464;SDS011;68932;47.410;8.232;2023-04-29T03:21:18;2.70;;;2.10;;
79464;SDS011;68932;47.410;8.232;2023-04-29T03:23:45;2.60;;;2.00;;
79464;SDS011;68932;47.410;8.232;2023-04-29T03:26:12;2.30;;;2.00;;
79464;SDS011;68932;47.410;8.232;2023-04-29T03:28:39;4.00;;;2.20;;
79464;SDS011;68932;47.410;8.232;2023-04-29T03:31:05;3.30;;;2.30;;
79464;SDS011;68932;47.410;8.232;2023-04-29T03:33:32;3.20;;;2.30;;
79464;SDS011;68932;47.410;8.232;2023-04-29T03:35:59;2.80;;;2.20;;
79464;SDS011;68932;47.410;8.232;2023-04-29T03:38:26;3.60;;;1.90;;
79464;SDS011;68932;47.410;8.232;2023-04-29T03:40:53;3.20;;;2.30;;
79464;SDS011;68932;47.410;8.232;2023-04-29T03:43:20;2.50;;;1.80;;
79464;SDS011;68932;47.410;8.232;2023-04-29T03:45:47;5.00;;;1.90;;
79464;SDS011;68932;47.410;8.232;2023-04-29T03:48:14;3.30;;;1.60;;
79464;SDS011;68932;47.410;8.232;2023-04-29T03:50:41;4.00;;;2.30;;
79464;SDS011;68932;47.410;8.232;2023-04-29T03:53:08;1.90;;;1.50;;
79464;SDS011;68932;47.410;8.232;2023-04-29T03:55:36;2.40;;;2.20;;
79464;SDS011;68932;47.410;8.232;2023-04-29T03:58:02;3.10;;;1.80;;
79464;SDS011;68932;47.410;8.232;2023-04-29T04:00:30;2.10;;;1.50;;
79464;SDS011;68932;47.410;8.232;2023-04-29T04:02:57;2.80;;;1.60;;
79464;SDS011;68932;47.410;8.232;2023-04-29T04:05:24;3.90;;;2.00;;
79464;SDS011;68932;47.410;8.232;2023-04-29T04:07:52;3.10;;;1.90;;
79464;SDS011;68932;47.410;8.232;2023-04-29T04:10:19;1.90;;;1.70;;
79464;SDS011;68932;47.410;8.232;2023-04-29T04:12:46;3.20;;;2.00;;
79464;SDS011;68932;47.410;8.232;2023-04-29T04:15:12;2.00;;;1.80;;
79464;SDS011;68932;47.410;8.232;2023-04-29T04:17:39;3.40;;;1.90;;
79464;SDS011;68932;47.410;8.232;2023-04-29T04:20:08;3.40;;;2.10;;
79464;SDS011;68932;47.410;8.232;2023-04-29T04:22:36;3.00;;;1.90;;
79464;SDS011;68932;47.410;8.232;2023-04-29T04:25:03;2.40;;;1.70;;
79464;SDS011;68932;47.410;8.232;2023-04-29T04:27:32;2.10;;;1.30;;
79464;SDS011;68932;47.410;8.232;2023-04-29T04:29:59;1.80;;;1.60;;
79464;SDS011;68932;47.410;8.232;2023-04-29T04:32:26;3.00;;;1.90;;
79464;SDS011;68932;47.410;8.232;2023-04-29T04:34:53;2.50;;;1.40;;
79464;SDS011;68932;47.410;8.232;2023-04-29T04:37:20;2.30;;;1.70;;
79464;SDS011;68932;47.410;8.232;2023-04-29T04:39:47;3.70;;;2.20;;
79464;SDS011;68932;47.410;8.232;2023-04-29T04:42:14;2.50;;;1.40;;
79464;SDS011;68932;47.410;8.232;2023-04-29T04:44:41;2.90;;;1.80;;
79464;SDS011;68932;47.410;8.232;2023-04-29T04:47:08;2.90;;;1.90;;
79464;SDS011;68932;47.410;8.232;2023-04-29T04:49:35;2.30;;;1.60;;
79464;SDS011;68932;47.410;8.232;2023-04-29T04:52:02;3.30;;;1.60;;
79464;SDS011;68932;47.410;8.232;2023-04-29T04:54:29;5.20;;;1.60;;
79464;SDS011;68932;47.410;8.232;2023-04-29T04:56:56;3.20;;;1.70;;
79464;SDS011;68932;47.410;8.232;2023-04-29T04:59:23;5.50;;;1.60;;
79464;SDS011;68932;47.410;8.232;2023-04-29T05:01:50;3.20;;;1.70;;
79464;SDS011;68932;47.410;8.232;2023-04-29T05:04:17;1.60;;;1.40;;
79464;SDS011;68932;47.410;8.232;2023-04-29T05:06:44;3.20;;;2.00;;
79464;SDS011;68932;47.410;8.232;2023-04-29T05:09:11;2.10;;;1.40;;
79464;SDS011;68932;47.410;8.232;2023-04-29T05:11:38;3.60;;;1.40;;
79464;SDS011;68932;47.410;8.232;2023-04-29T05:14:04;5.60;;;1.70;;
79464;SDS011;68932;47.410;8.232;2023-04-29T05:16:31;8.50;;;6.00;;
79464;SDS011;68932;47.410;8.232;2023-04-29T05:18:58;5.10;;;3.40;;
79464;SDS011;68932;47.410;8.232;2023-04-29T05:21:25;3.40;;;2.20;;
79464;SDS011;68932;47.410;8.232;2023-04-29T05:23:52;3.10;;;2.60;;
79464;SDS011;68932;47.410;8.232;2023-04-29T05:26:19;2.80;;;2.40;;
79464;SDS011;68932;47.410;8.232;2023-04-29T05:28:46;5.60;;;2.60;;
79464;SDS011;68932;47.410;8.232;2023-04-29T05:31:13;5.20;;;2.50;;
79464;SDS011;68932;47.410;8.232;2023-04-29T05:33:39;8.40;;;7.60;;
79464;SDS011;68932;47.410;8.232;2023-04-29T05:36:07;4.80;;;2.80;;
79464;SDS011;68932;47.410;8.232;2023-04-29T05:38:34;2.60;;;2.00;;
79464;SDS011;68932;47.410;8.232;2023-04-29T05:41:01;3.80;;;2.20;;
79464;SDS011;68932;47.410;8.232;2023-04-29T05:43:28;3.70;;;2.10;;
79464;SDS011;68932;47.410;8.232;2023-04-29T05:45:55;4.80;;;2.80;;
79464;SDS011;68932;47.410;8.232;2023-04-29T05:48:22;3.70;;;2.60;;
79464;SDS011;68932;47.410;8.232;2023-04-29T05:50:49;2.90;;;2.40;;
79464;SDS011;68932;47.410;8.232;2023-04-29T05:53:16;4.00;;;2.60;;
79464;SDS011;68932;47.410;8.232;2023-04-29T05:55:42;2.90;;;2.60;;
79464;SDS011;68932;47.410;8.232;2023-04-29T05:58:10;4.00;;;3.70;;
79464;SDS011;68932;47.410;8.232;2023-04-29T06:00:38;4.20;;;3.00;;
79464;SDS011;68932;47.410;8.232;2023-04-29T06:03:04;3.90;;;2.60;;
79464;SDS011;68932;47.410;8.232;2023-04-29T06:05:31;2.70;;;2.40;;
79464;SDS011;68932;47.410;8.232;2023-04-29T06:07:58;5.60;;;3.00;;
79464;SDS011;68932;47.410;8.232;2023-04-29T06:10:25;3.70;;;3.00;;
79464;SDS011;68932;47.410;8.232;2023-04-29T06:12:52;4.00;;;3.00;;
79464;SDS011;68932;47.410;8.232;2023-04-29T06:15:19;3.10;;;2.80;;
79464;SDS011;68932;47.410;8.232;2023-04-29T06:17:46;3.30;;;2.80;;
79464;SDS011;68932;47.410;8.232;2023-04-29T06:20:13;3.30;;;3.00;;
79464;SDS011;68932;47.410;8.232;2023-04-29T06:22:40;3.30;;;3.00;;
79464;SDS011;68932;47.410;8.232;2023-04-29T06:25:08;3.40;;;3.10;;
79464;SDS011;68932;47.410;8.232;2023-04-29T06:27:35;3.10;;;2.90;;
79464;SDS011;68932;47.410;8.232;2023-04-29T06:30:02;5.70;;;2.80;;
79464;SDS011;68932;47.410;8.232;2023-04-29T06:32:30;3.50;;;3.20;;
79464;SDS011;68932;47.410;8.232;2023-04-29T06:34:57;4.40;;;2.80;;
79464;SDS011;68932;47.410;8.232;2023-04-29T06:37:24;4.00;;;3.20;;
79464;SDS011;68932;47.410;8.232;2023-04-29T06:39:50;4.80;;;3.70;;
79464;SDS011;68932;47.410;8.232;2023-04-29T06:42:17;5.50;;;4.90;;
79464;SDS011;68932;47.410;8.232;2023-04-29T06:44:44;3.80;;;3.30;;
79464;SDS011;68932;47.410;8.232;2023-04-29T06:47:11;5.00;;;2.80;;
79464;SDS011;68932;47.410;8.232;2023-04-29T06:49:38;3.60;;;2.60;;
79464;SDS011;68932;47.410;8.232;2023-04-29T06:52:05;3.80;;;2.80;;
79464;SDS011;68932;47.410;8.232;2023-04-29T06:54:32;3.10;;;2.80;;
79464;SDS011;68932;47.410;8.232;2023-04-29T06:56:59;3.60;;;2.60;;
79464;SDS011;68932;47.410;8.232;2023-04-29T06:59:25;3.30;;;2.60;;
79464;SDS011;68932;47.410;8.232;2023-04-29T07:01:52;3.50;;;2.80;;
79464;SDS011;68932;47.410;8.232;2023-04-29T07:04:19;4.70;;;3.00;;
79464;SDS011;68932;47.410;8.232;2023-04-29T07:06:46;3.40;;;2.90;;
79464;SDS011;68932;47.410;8.232;2023-04-29T07:09:13;3.60;;;3.30;;
79464;SDS011;68932;47.410;8.232;2023-04-29T07:11:40;3.20;;;2.60;;
79464;SDS011;68932;47.410;8.232;2023-04-29T07:14:07;3.50;;;2.70;;
79464;SDS011;68932;47.410;8.232;2023-04-29T07:16:34;3.10;;;2.80;;
79464;SDS011;68932;47.410;8.232;2023-04-29T07:19:01;5.80;;;3.20;;
79464;SDS011;68932;47.410;8.232;2023-04-29T07:21:28;3.70;;;2.50;;
79464;SDS011;68932;47.410;8.232;2023-04-29T07:23:55;5.30;;;2.80;;
79464;SDS011;68932;47.410;8.232;2023-04-29T07:26:21;3.80;;;2.90;;
79464;SDS011;68932;47.410;8.232;2023-04-29T07:28:48;3.50;;;2.80;;
79464;SDS011;68932;47.410;8.232;2023-04-29T07:31:15;3.70;;;3.00;;
79464;SDS011;68932;47.410;8.232;2023-04-29T07:33:43;3.60;;;2.80;;
79464;SDS011;68932;47.410;8.232;2023-04-29T07:36:10;4.30;;;3.00;;
79464;SDS011;68932;47.410;8.232;2023-04-29T07:38:37;4.30;;;3.10;;
79464;SDS011;68932;47.410;8.232;2023-04-29T07:41:04;5.50;;;2.80;;
79464;SDS011;68932;47.410;8.232;2023-04-29T07:43:31;3.70;;;3.30;;
79464;SDS011;68932;47.410;8.232;2023-04-29T07:45:57;4.20;;;2.30;;
79464;SDS011;68932;47.410;8.232;2023-04-29T07:48:24;3.50;;;2.60;;
79464;SDS011;68932;47.410;8.232;2023-04-29T07:50:51;3.40;;;2.60;;
79464;SDS011;68932;47.410;8.232;2023-04-29T07:53:18;3.30;;;2.90;;
79464;SDS011;68932;47.410;8.232;2023-04-29T07:55:46;3.40;;;3.10;;
79464;SDS011;68932;47.410;8.232;2023-04-29T07:58:12;4.60;;;3.50;;
79464;SDS011;68932;47.410;8.232;2023-04-29T08:00:39;3.20;;;2.80;;
79464;SDS011;68932;47.410;8.232;2023-04-29T08:03:06;4.80;;;2.80;;
79464;SDS011;68932;47.410;8.232;2023-04-29T08:05:33;4.10;;;3.00;;
79464;SDS011;68932;47.410;8.232;2023-04-29T08:08:00;3.60;;;3.10;;
79464;SDS011;68932;47.410;8.232;2023-04-29T08:10:27;3.90;;;3.30;;
79464;SDS011;68932;47.410;8.232;2023-04-29T08:12:54;3.10;;;2.60;;
79464;SDS011;68932;47.410;8.232;2023-04-29T08:15:21;2.80;;;2.40;;
79464;SDS011;68932;47.410;8.232;2023-04-29T08:17:48;2.50;;;2.30;;
79464;SDS011;68932;47.410;8.232;2023-04-29T08:20:15;3.40;;;2.90;;
79464;SDS011;68932;47.410;8.232;2023-04-29T08:22:42;3.50;;;1.70;;
79464;SDS011;68932;47.410;8.232;2023-04-29T08:25:10;2.50;;;2.10;;
79464;SDS011;68932;47.410;8.232;2023-04-29T08:27:37;3.90;;;2.70;;
79464;SDS011;68932;47.410;8.232;2023-04-29T08:30:05;3.60;;;2.30;;
79464;SDS011;68932;47.410;8.232;2023-04-29T08:32:33;2.40;;;2.20;;
79464;SDS011;68932;47.410;8.232;2023-04-29T08:35:00;3.10;;;2.00;;
79464;SDS011;68932;47.410;8.232;2023-04-29T08:37:27;2.60;;;2.10;;
79464;SDS011;68932;47.410;8.232;2023-04-29T08:39:54;3.50;;;3.20;;
79464;SDS011;68932;47.410;8.232;2023-04-29T08:42:27;5.60;;;3.50;;
79464;SDS011;68932;47.410;8.232;2023-04-29T08:44:58;5.10;;;2.70;;
79464;SDS011;68932;47.410;8.232;2023-04-29T08:47:26;3.70;;;2.60;;
79464;SDS011;68932;47.410;8.232;2023-04-29T08:49:55;4.70;;;2.90;;
79464;SDS011;68932;47.410;8.232;2023-04-29T08:52:23;3.00;;;2.00;;
79464;SDS011;68932;47.410;8.232;2023-04-29T08:54:50;2.80;;;2.10;;
79464;SDS011;68932;47.410;8.232;2023-04-29T08:57:17;3.30;;;2.80;;
79464;SDS011;68932;47.410;8.232;2023-04-29T08:59:46;3.30;;;1.90;;
79464;SDS011;68932;47.410;8.232;2023-04-29T09:02:14;3.30;;;1.90;;
79464;SDS011;68932;47.410;8.232;2023-04-29T09:04:46;3.20;;;1.60;;
79464;SDS011;68932;47.410;8.232;2023-04-29T09:07:17;3.10;;;1.70;;
79464;SDS011;68932;47.410;8.232;2023-04-29T09:09:45;2.70;;;1.80;;
79464;SDS011;68932;47.410;8.232;2023-04-29T09:12:13;2.40;;;1.90;;
79464;SDS011;68932;47.410;8.232;2023-04-29T09:14:40;2.30;;;1.90;;
79464;SDS011;68932;47.410;8.232;2023-04-29T09:17:07;2.60;;;1.80;;
79464;SDS011;68932;47.410;8.232;2023-04-29T09:19:34;2.40;;;1.70;;
79464;SDS011;68932;47.410;8.232;2023-04-29T09:22:02;2.30;;;2.10;;
79464;SDS011;68932;47.410;8.232;2023-04-29T09:24:30;3.00;;;1.70;;
79464;SDS011;68932;47.410;8.232;2023-04-29T09:26:57;2.10;;;1.40;;
79464;SDS011;68932;47.410;8.232;2023-04-29T09:29:25;2.40;;;1.90;;
79464;SDS011;68932;47.410;8.232;2023-04-29T09:31:52;2.50;;;1.60;;
79464;SDS011;68932;47.410;8.232;2023-04-29T09:34:29;2.30;;;1.50;;
79464;SDS011;68932;47.410;8.232;2023-04-29T09:36:57;3.00;;;1.70;;
79464;SDS011;68932;47.410;8.232;2023-04-29T09:39:24;2.80;;;1.50;;
79464;SDS011;68932;47.410;8.232;2023-04-29T09:41:57;1.70;;;1.50;;
79464;SDS011;68932;47.410;8.232;2023-04-29T09:44:26;1.60;;;1.30;;
79464;SDS011;68932;47.410;8.232;2023-04-29T09:46:54;3.30;;;1.40;;
79464;SDS011;68932;47.410;8.232;2023-04-29T09:49:22;3.00;;;1.70;;
79464;SDS011;68932;47.410;8.232;2023-04-29T09:51:54;1.60;;;1.20;;
79464;SDS011;68932;47.410;8.232;2023-04-29T09:54:22;1.60;;;1.20;;
79464;SDS011;68932;47.410;8.232;2023-04-29T09:56:50;2.00;;;0.90;;
79464;SDS011;68932;47.410;8.232;2023-04-29T09:59:18;3.10;;;1.20;;
79464;SDS011;68932;47.410;8.232;2023-04-29T10:01:46;2.10;;;1.50;;
79464;SDS011;68932;47.410;8.232;2023-04-29T10:04:14;2.80;;;2.10;;
79464;SDS011;68932;47.410;8.232;2023-04-29T10:06:42;2.00;;;1.60;;
79464;SDS011;68932;47.410;8.232;2023-04-29T10:09:11;1.80;;;1.40;;
79464;SDS011;68932;47.410;8.232;2023-04-29T10:11:39;4.60;;;2.00;;
79464;SDS011;68932;47.410;8.232;2023-04-29T10:14:06;1.70;;;1.40;;
79464;SDS011;68932;47.410;8.232;2023-04-29T10:16:41;1.70;;;1.40;;
79464;SDS011;68932;47.410;8.232;2023-04-29T10:21:39;1.80;;;1.30;;
79464;SDS011;68932;47.410;8.232;2023-04-29T10:24:06;3.60;;;1.70;;
79464;SDS011;68932;47.410;8.232;2023-04-29T10:26:35;2.80;;;1.50;;
79464;SDS011;68932;47.410;8.232;2023-04-29T10:29:04;2.30;;;1.50;;
79464;SDS011;68932;47.410;8.232;2023-04-29T10:31:32;6.20;;;1.50;;
79464;SDS011;68932;47.410;8.232;2023-04-29T10:34:01;2.20;;;1.40;;
79464;SDS011;68932;47.410;8.232;2023-04-29T10:36:28;2.00;;;1.40;;
79464;SDS011;68932;47.410;8.232;2023-04-29T10:38:57;5.90;;;1.50;;
79464;SDS011;68932;47.410;8.232;2023-04-29T10:41:28;2.30;;;1.30;;
79464;SDS011;68932;47.410;8.232;2023-04-29T10:43:59;2.70;;;1.30;;
79464;SDS011;68932;47.410;8.232;2023-04-29T10:46:26;2.20;;;1.90;;
79464;SDS011;68932;47.410;8.232;2023-04-29T10:48:56;2.20;;;1.50;;
79464;SDS011;68932;47.410;8.232;2023-04-29T10:51:29;1.60;;;1.40;;
79464;SDS011;68932;47.410;8.232;2023-04-29T10:53:57;1.50;;;1.30;;
79464;SDS011;68932;47.410;8.232;2023-04-29T10:56:34;2.20;;;1.60;;
79464;SDS011;68932;47.410;8.232;2023-04-29T10:59:03;2.60;;;1.50;;
79464;SDS011;68932;47.410;8.232;2023-04-29T11:01:43;1.90;;;1.40;;
79464;SDS011;68932;47.410;8.232;2023-04-29T11:04:12;1.40;;;1.10;;
79464;SDS011;68932;47.410;8.232;2023-04-29T11:06:40;1.50;;;1.10;;
79464;SDS011;68932;47.410;8.232;2023-04-29T11:09:11;2.40;;;1.50;;
79464;SDS011;68932;47.410;8.232;2023-04-29T11:11:58;3.00;;;1.30;;
79464;SDS011;68932;47.410;8.232;2023-04-29T11:14:28;2.40;;;1.20;;
79464;SDS011;68932;47.410;8.232;2023-04-29T11:16:57;1.30;;;1.00;;
79464;SDS011;68932;47.410;8.232;2023-04-29T11:19:29;2.00;;;1.10;;
79464;SDS011;68932;47.410;8.232;2023-04-29T11:22:11;2.10;;;1.10;;
79464;SDS011;68932;47.410;8.232;2023-04-29T11:24:52;2.10;;;1.10;;
79464;SDS011;68932;47.410;8.232;2023-04-29T11:27:20;1.80;;;1.20;;
79464;SDS011;68932;47.410;8.232;2023-04-29T11:29:49;3.20;;;1.30;;
79464;SDS011;68932;47.410;8.232;2023-04-29T11:32:19;1.20;;;0.90;;
79464;SDS011;68932;47.410;8.232;2023-04-29T11:34:47;1.00;;;0.80;;
79464;SDS011;68932;47.410;8.232;2023-04-29T11:37:18;2.90;;;1.10;;
79464;SDS011;68932;47.410;8.232;2023-04-29T11:39:46;2.60;;;1.10;;
79464;SDS011;68932;47.410;8.232;2023-04-29T11:42:18;1.50;;;1.00;;
79464;SDS011;68932;47.410;8.232;2023-04-29T11:44:45;1.70;;;1.60;;
79464;SDS011;68932;47.410;8.232;2023-04-29T11:47:12;1.60;;;1.00;;
79464;SDS011;68932;47.410;8.232;2023-04-29T11:49:39;4.10;;;1.40;;
79464;SDS011;68932;47.410;8.232;2023-04-29T11:52:06;1.30;;;1.10;;
79464;SDS011;68932;47.410;8.232;2023-04-29T11:54:33;1.50;;;1.10;;
79464;SDS011;68932;47.410;8.232;2023-04-29T11:57:00;3.30;;;1.80;;
79464;SDS011;68932;47.410;8.232;2023-04-29T11:59:27;2.50;;;1.30;;
79464;SDS011;68932;47.410;8.232;2023-04-29T12:01:56;2.20;;;1.10;;
79464;SDS011;68932;47.410;8.232;2023-04-29T12:04:24;2.70;;;1.10;;
79464;SDS011;68932;47.410;8.232;2023-04-29T12:06:51;1.30;;;0.80;;
79464;SDS011;68932;47.410;8.232;2023-04-29T12:09:18;2.10;;;1.20;;
79464;SDS011;68932;47.410;8.232;2023-04-29T12:11:45;1.20;;;0.90;;
79464;SDS011;68932;47.410;8.232;2023-04-29T12:14:13;1.20;;;0.70;;
79464;SDS011;68932;47.410;8.232;2023-04-29T12:16:40;2.20;;;1.80;;
79464;SDS011;68932;47.410;8.232;2023-04-29T12:19:07;2.20;;;1.00;;
79464;SDS011;68932;47.410;8.232;2023-04-29T12:21:34;1.90;;;1.00;;
79464;SDS011;68932;47.410;8.232;2023-04-29T12:24:01;2.20;;;1.10;;
79464;SDS011;68932;47.410;8.232;2023-04-29T12:26:29;2.20;;;1.00;;
79464;SDS011;68932;47.410;8.232;2023-04-29T12:28:56;2.10;;;0.90;;
79464;SDS011;68932;47.410;8.232;2023-04-29T12:31:32;2.20;;;1.10;;
79464;SDS011;68932;47.410;8.232;2023-04-29T12:33:59;1.50;;;1.00;;
79464;SDS011;68932;47.410;8.232;2023-04-29T12:36:29;1.20;;;0.80;;
79464;SDS011;68932;47.410;8.232;2023-04-29T12:38:56;2.60;;;0.80;;
79464;SDS011;68932;47.410;8.232;2023-04-29T12:44:06;1.20;;;0.80;;
79464;SDS011;68932;47.410;8.232;2023-04-29T12:46:34;1.50;;;0.90;;
79464;SDS011;68932;47.410;8.232;2023-04-29T12:49:02;1.90;;;0.90;;
79464;SDS011;68932;47.410;8.232;2023-04-29T12:51:29;3.20;;;0.80;;
79464;SDS011;68932;47.410;8.232;2023-04-29T12:53:57;1.00;;;0.70;;
79464;SDS011;68932;47.410;8.232;2023-04-29T12:56:24;1.60;;;0.70;;
79464;SDS011;68932;47.410;8.232;2023-04-29T12:58:51;1.40;;;1.30;;
79464;SDS011;68932;47.410;8.232;2023-04-29T13:01:18;1.40;;;0.80;;
79464;SDS011;68932;47.410;8.232;2023-04-29T13:03:45;2.10;;;0.80;;
79464;SDS011;68932;47.410;8.232;2023-04-29T13:06:12;1.40;;;0.40;;
79464;SDS011;68932;47.410;8.232;2023-04-29T13:08:38;2.20;;;1.00;;
79464;SDS011;68932;47.410;8.232;2023-04-29T13:11:06;1.30;;;1.10;;
79464;SDS011;68932;47.410;8.232;2023-04-29T13:13:34;1.80;;;0.60;;
79464;SDS011;68932;47.410;8.232;2023-04-29T13:16:00;0.90;;;0.60;;
79464;SDS011;68932;47.410;8.232;2023-04-29T13:18:28;1.20;;;0.50;;
79464;SDS011;68932;47.410;8.232;2023-04-29T13:20:54;1.50;;;0.60;;
79464;SDS011;68932;47.410;8.232;2023-04-29T13:23:21;0.80;;;0.70;;
79464;SDS011;68932;47.410;8.232;2023-04-29T13:25:49;1.70;;;0.70;;
79464;SDS011;68932;47.410;8.232;2023-04-29T13:28:16;1.70;;;0.60;;
79464;SDS011;68932;47.410;8.232;2023-04-29T13:30:43;1.00;;;0.70;;
79464;SDS011;68932;47.410;8.232;2023-04-29T13:33:10;1.50;;;0.70;;
79464;SDS011;68932;47.410;8.232;2023-04-29T13:35:37;2.10;;;1.20;;
79464;SDS011;68932;47.410;8.232;2023-04-29T13:38:04;2.00;;;0.60;;
79464;SDS011;68932;47.410;8.232;2023-04-29T13:40:31;1.40;;;0.60;;
79464;SDS011;68932;47.410;8.232;2023-04-29T13:42:58;2.20;;;0.80;;
79464;SDS011;68932;47.410;8.232;2023-04-29T13:45:25;2.90;;;0.90;;
79464;SDS011;68932;47.410;8.232;2023-04-29T13:47:52;1.60;;;0.50;;
79464;SDS011;68932;47.410;8.232;2023-04-29T13:50:19;1.00;;;0.70;;
79464;SDS011;68932;47.410;8.232;2023-04-29T13:52:46;1.30;;;0.60;;
79464;SDS011;68932;47.410;8.232;2023-04-29T13:55:13;2.10;;;0.90;;
79464;SDS011;68932;47.410;8.232;2023-04-29T13:57:40;1.70;;;0.90;;
79464;SDS011;68932;47.410;8.232;2023-04-29T14:00:09;0.70;;;0.40;;
79464;SDS011;68932;47.410;8.232;2023-04-29T14:02:37;1.10;;;0.60;;
79464;SDS011;68932;47.410;8.232;2023-04-29T14:05:04;1.10;;;0.70;;
79464;SDS011;68932;47.410;8.232;2023-04-29T14:07:31;2.30;;;0.60;;
79464;SDS011;68932;47.410;8.232;2023-04-29T14:09:58;1.70;;;0.70;;
79464;SDS011;68932;47.410;8.232;2023-04-29T14:12:25;1.80;;;0.90;;
79464;SDS011;68932;47.410;8.232;2023-04-29T14:14:52;1.20;;;0.70;;
79464;SDS011;68932;47.410;8.232;2023-04-29T14:17:19;1.90;;;0.90;;
79464;SDS011;68932;47.410;8.232;2023-04-29T14:19:46;1.90;;;0.90;;
79464;SDS011;68932;47.410;8.232;2023-04-29T14:22:13;0.80;;;0.50;;
79464;SDS011;68932;47.410;8.232;2023-04-29T14:24:39;1.40;;;0.70;;
79464;SDS011;68932;47.410;8.232;2023-04-29T14:27:06;0.90;;;0.60;;
79464;SDS011;68932;47.410;8.232;2023-04-29T14:29:33;1.40;;;0.90;;
79464;SDS011;68932;47.410;8.232;2023-04-29T14:32:00;2.00;;;0.90;;
79464;SDS011;68932;47.410;8.232;2023-04-29T14:34:27;1.40;;;0.80;;
79464;SDS011;68932;47.410;8.232;2023-04-29T14:36:54;1.20;;;0.80;;
79464;SDS011;68932;47.410;8.232;2023-04-29T14:39:21;1.50;;;1.00;;
79464;SDS011;68932;47.410;8.232;2023-04-29T14:41:48;1.00;;;0.70;;
79464;SDS011;68932;47.410;8.232;2023-04-29T14:44:15;1.00;;;0.60;;
79464;SDS011;68932;47.410;8.232;2023-04-29T14:46:42;2.40;;;1.30;;
79464;SDS011;68932;47.410;8.232;2023-04-29T14:49:09;2.00;;;0.80;;
79464;SDS011;68932;47.410;8.232;2023-04-29T14:51:36;1.50;;;1.10;;
79464;SDS011;68932;47.410;8.232;2023-04-29T14:54:03;2.10;;;0.80;;
79464;SDS011;68932;47.410;8.232;2023-04-29T14:56:30;2.20;;;0.90;;